sensor_id;sensor_type;location;lat;lon;timestamp;pressure;altitude;pressure_sealevel;temperature;humidity
74329;BME280;62749;51.982;5.916;2023-04-19T00:02:14;102544.13;;;10.69;67.45
74329;BME280;62749;51.982;5.916;2023-04-19T00:04:44;102538.66;;;10.82;67.25
74329;BME280;62749;51.982;5.916;2023-04-19T00:07:14;102537.91;;;10.73;67.23
74329;BME280;62749;51.982;5.916;2023-04-19T00:09:45;102537.13;;;10.65;67.47
74329;BME280;62749;51.982;5.916;2023-04-19T00:12:15;102522.16;;;10.66;67.71
74329;BME280;62749;51.982;5.916;2023-04-19T00:14:44;102536.19;;;10.69;67.73
74329;BME280;62749;51.982;5.916;2023-04-19T00:17:17;102536.22;;;10.66;67.93
74329;BME280;62749;51.982;5.916;2023-04-19T00:19:46;102536.25;;;10.65;68.25
74329;BME280;62749;51.982;5.916;2023-04-19T00:22:16;102538.19;;;10.53;68.63
74329;BME280;62749;51.982;5.916;2023-04-19T00:24:45;102530.28;;;10.52;68.92
74329;BME280;62749;51.982;5.916;2023-04-19T00:27:15;102531.97;;;10.56;68.69
74329;BME280;62749;51.982;5.916;2023-04-19T00:29:44;102516.47;;;10.28;69.38
74329;BME280;62749;51.982;5.916;2023-04-19T00:32:16;102513.69;;;10.40;69.49
74329;BME280;62749;51.982;5.916;2023-04-19T00:34:46;102511.09;;;10.37;69.66
74329;BME280;62749;51.982;5.916;2023-04-19T00:37:16;102512.84;;;10.37;69.50
74329;BME280;62749;51.982;5.916;2023-04-19T00:39:46;102522.53;;;10.35;69.74
74329;BME280;62749;51.982;5.916;2023-04-19T00:42:15;102525.25;;;10.32;69.95
74329;BME280;62749;51.982;5.916;2023-04-19T00:44:45;102520.06;;;10.22;70.32
74329;BME280;62749;51.982;5.916;2023-04-19T00:47:20;102512.94;;;10.29;70.07
74329;BME280;62749;51.982;5.916;2023-04-19T00:49:49;102514.72;;;10.27;69.98
74329;BME280;62749;51.982;5.916;2023-04-19T00:52:21;102507.75;;;10.21;70.32
74329;BME280;62749;51.982;5.916;2023-04-19T00:54:52;102509.47;;;10.25;70.52
74329;BME280;62749;51.982;5.916;2023-04-19T00:57:24;102506.03;;;10.19;70.80
74329;BME280;62749;51.982;5.916;2023-04-19T00:59:54;102512.19;;;10.18;70.98
74329;BME280;62749;51.982;5.916;2023-04-19T01:02:27;102503.25;;;10.29;70.92
74329;BME280;62749;51.982;5.916;2023-04-19T01:04:57;102496.19;;;10.30;70.26
74329;BME280;62749;51.982;5.916;2023-04-19T01:07:27;102507.75;;;10.23;70.74
74329;BME280;62749;51.982;5.916;2023-04-19T01:09:57;102501.47;;;10.32;70.29
74329;BME280;62749;51.982;5.916;2023-04-19T01:12:26;102508.59;;;10.23;70.78
74329;BME280;62749;51.982;5.916;2023-04-19T01:14:56;102502.53;;;10.17;70.89
74329;BME280;62749;51.982;5.916;2023-04-19T01:17:31;102500.00;;;10.10;70.94
74329;BME280;62749;51.982;5.916;2023-04-19T01:20:01;102490.19;;;10.19;71.08
74329;BME280;62749;51.982;5.916;2023-04-19T01:22:34;102488.47;;;10.16;71.02
74329;BME280;62749;51.982;5.916;2023-04-19T01:25:06;102501.69;;;10.14;71.24
74329;BME280;62749;51.982;5.916;2023-04-19T01:27:36;102499.03;;;10.14;71.30
74329;BME280;62749;51.982;5.916;2023-04-19T01:30:07;102498.22;;;10.11;71.57
74329;BME280;62749;51.982;5.916;2023-04-19T01:32:37;102499.94;;;10.15;71.48
74329;BME280;62749;51.982;5.916;2023-04-19T01:35:07;102503.59;;;10.03;71.82
74329;BME280;62749;51.982;5.916;2023-04-19T01:37:39;102488.63;;;10.02;71.66
74329;BME280;62749;51.982;5.916;2023-04-19T01:40:09;102499.28;;;9.96;71.93
74329;BME280;62749;51.982;5.916;2023-04-19T01:42:39;102499.28;;;9.96;72.12
74329;BME280;62749;51.982;5.916;2023-04-19T01:45:09;102501.88;;;9.99;72.05
74329;BME280;62749;51.982;5.916;2023-04-19T01:47:38;102494.78;;;10.04;71.79
74329;BME280;62749;51.982;5.916;2023-04-19T01:50:08;102494.84;;;9.98;71.78
74329;BME280;62749;51.982;5.916;2023-04-19T01:52:40;102497.50;;;9.98;71.88
74329;BME280;62749;51.982;5.916;2023-04-19T01:55:10;102492.31;;;9.89;72.25
74329;BME280;62749;51.982;5.916;2023-04-19T01:57:39;102491.50;;;9.82;72.48
74329;BME280;62749;51.982;5.916;2023-04-19T02:00:11;102497.66;;;9.86;72.47
74329;BME280;62749;51.982;5.916;2023-04-19T02:02:40;102496.69;;;9.91;72.26
74329;BME280;62749;51.982;5.916;2023-04-19T02:05:10;102490.50;;;9.94;71.75
74329;BME280;62749;51.982;5.916;2023-04-19T02:07:42;102491.50;;;9.83;72.28
74329;BME280;62749;51.982;5.916;2023-04-19T02:10:11;102493.19;;;9.89;72.13
74329;BME280;62749;51.982;5.916;2023-04-19T02:12:41;102487.88;;;9.91;72.08
74329;BME280;62749;51.982;5.916;2023-04-19T02:15:10;102488.72;;;9.96;72.09
74329;BME280;62749;51.982;5.916;2023-04-19T02:17:40;102485.19;;;9.95;71.88
74329;BME280;62749;51.982;5.916;2023-04-19T02:20:09;102492.31;;;9.90;71.73
74329;BME280;62749;51.982;5.916;2023-04-19T02:22:41;102502.03;;;9.85;72.18
74329;BME280;62749;51.982;5.916;2023-04-19T02:25:13;102492.38;;;9.84;72.03
74329;BME280;62749;51.982;5.916;2023-04-19T02:27:44;102494.13;;;9.87;72.11
74329;BME280;62749;51.982;5.916;2023-04-19T02:30:14;102501.84;;;10.01;71.81
74329;BME280;62749;51.982;5.916;2023-04-19T02:32:43;102501.81;;;10.05;71.49
74329;BME280;62749;51.982;5.916;2023-04-19T02:35:15;102501.88;;;9.97;71.70
74329;BME280;62749;51.982;5.916;2023-04-19T02:37:47;102502.72;;;10.01;71.44
74329;BME280;62749;51.982;5.916;2023-04-19T02:40:17;102494.84;;;9.98;71.44
74329;BME280;62749;51.982;5.916;2023-04-19T02:42:48;102497.53;;;9.95;71.43
74329;BME280;62749;51.982;5.916;2023-04-19T02:45:17;102497.47;;;10.00;71.45
74329;BME280;62749;51.982;5.916;2023-04-19T02:47:46;102486.13;;;9.93;71.30
74329;BME280;62749;51.982;5.916;2023-04-19T02:50:16;102489.56;;;9.96;71.58
74329;BME280;62749;51.982;5.916;2023-04-19T02:52:48;102498.38;;;10.00;71.29
74329;BME280;62749;51.982;5.916;2023-04-19T02:55:18;102491.25;;;10.05;71.34
74329;BME280;62749;51.982;5.916;2023-04-19T02:57:47;102486.09;;;9.94;70.89
74329;BME280;62749;51.982;5.916;2023-04-19T03:00:17;102486.94;;;9.98;71.05
74329;BME280;62749;51.982;5.916;2023-04-19T03:02:46;102493.97;;;9.99;71.16
74329;BME280;62749;51.982;5.916;2023-04-19T03:05:16;102493.91;;;10.04;71.06
74329;BME280;62749;51.982;5.916;2023-04-19T03:07:48;102491.38;;;9.96;70.95
74329;BME280;62749;51.982;5.916;2023-04-19T03:10:18;102490.50;;;9.94;70.81
74329;BME280;62749;51.982;5.916;2023-04-19T03:12:47;102493.16;;;9.91;71.02
74329;BME280;62749;51.982;5.916;2023-04-19T03:15:17;102494.97;;;9.87;71.30
74329;BME280;62749;51.982;5.916;2023-04-19T03:17:47;102487.91;;;9.89;71.15
74329;BME280;62749;51.982;5.916;2023-04-19T03:20:16;102491.47;;;9.87;71.28
74329;BME280;62749;51.982;5.916;2023-04-19T03:22:48;102490.63;;;9.85;71.22
74329;BME280;62749;51.982;5.916;2023-04-19T03:25:18;102483.59;;;9.83;71.17
74329;BME280;62749;51.982;5.916;2023-04-19T03:27:47;102492.22;;;9.96;70.90
74329;BME280;62749;51.982;5.916;2023-04-19T03:30:17;102481.69;;;9.95;70.82
74329;BME280;62749;51.982;5.916;2023-04-19T03:32:47;102483.50;;;9.91;70.41
74329;BME280;62749;51.982;5.916;2023-04-19T03:35:17;102482.59;;;9.94;70.35
74329;BME280;62749;51.982;5.916;2023-04-19T03:37:50;102481.72;;;9.92;70.37
74329;BME280;62749;51.982;5.916;2023-04-19T03:40:20;102480.78;;;9.99;70.20
74329;BME280;62749;51.982;5.916;2023-04-19T03:42:49;102479.03;;;9.98;69.97
74329;BME280;62749;51.982;5.916;2023-04-19T03:45:18;102480.91;;;9.85;70.02
74329;BME280;62749;51.982;5.916;2023-04-19T03:47:48;102492.41;;;9.82;69.88
74329;BME280;62749;51.982;5.916;2023-04-19T03:50:18;102489.75;;;9.82;69.82
74329;BME280;62749;51.982;5.916;2023-04-19T03:52:50;102493.25;;;9.85;69.61
74329;BME280;62749;51.982;5.916;2023-04-19T03:55:20;102499.44;;;9.82;69.71
74329;BME280;62749;51.982;5.916;2023-04-19T03:57:49;102487.19;;;9.76;69.55
74329;BME280;62749;51.982;5.916;2023-04-19T04:00:19;102497.81;;;9.70;69.80
74329;BME280;62749;51.982;5.916;2023-04-19T04:02:49;102495.22;;;9.64;69.65
74329;BME280;62749;51.982;5.916;2023-04-19T04:05:18;102498.72;;;9.66;69.57
74329;BME280;62749;51.982;5.916;2023-04-19T04:07:50;102493.53;;;9.58;69.61
74329;BME280;62749;51.982;5.916;2023-04-19T04:10:20;102491.06;;;9.44;69.25
74329;BME280;62749;51.982;5.916;2023-04-19T04:12:49;102491.03;;;9.47;69.26
74329;BME280;62749;51.982;5.916;2023-04-19T04:15:19;102484.88;;;9.48;68.94
74329;BME280;62749;51.982;5.916;2023-04-19T04:17:49;102494.63;;;9.37;69.07
74329;BME280;62749;51.982;5.916;2023-04-19T04:20:19;102492.09;;;9.28;69.39
74329;BME280;62749;51.982;5.916;2023-04-19T04:22:51;102489.44;;;9.31;69.30
74329;BME280;62749;51.982;5.916;2023-04-19T04:25:21;102495.44;;;9.45;68.88
74329;BME280;62749;51.982;5.916;2023-04-19T04:27:51;102492.88;;;9.38;68.21
74329;BME280;62749;51.982;5.916;2023-04-19T04:30:21;102479.81;;;9.25;68.02
74329;BME280;62749;51.982;5.916;2023-04-19T04:32:52;102492.94;;;9.33;68.07
74329;BME280;62749;51.982;5.916;2023-04-19T04:35:23;102492.84;;;9.39;68.29
74329;BME280;62749;51.982;5.916;2023-04-19T04:37:58;102481.59;;;9.23;68.06
74329;BME280;62749;51.982;5.916;2023-04-19T04:40:29;102484.13;;;9.34;67.92
74329;BME280;62749;51.982;5.916;2023-04-19T04:42:58;102492.19;;;9.18;67.81
74329;BME280;62749;51.982;5.916;2023-04-19T04:45:29;102484.25;;;9.21;67.82
74329;BME280;62749;51.982;5.916;2023-04-19T04:47:59;102491.28;;;9.23;67.75
74329;BME280;62749;51.982;5.916;2023-04-19T04:50:28;102487.69;;;9.27;67.54
74329;BME280;62749;51.982;5.916;2023-04-19T04:53:00;102475.59;;;9.04;67.74
74329;BME280;62749;51.982;5.916;2023-04-19T04:55:29;102483.44;;;9.10;67.53
74329;BME280;62749;51.982;5.916;2023-04-19T04:57:59;102487.00;;;9.09;67.67
74329;BME280;62749;51.982;5.916;2023-04-19T05:00:31;102490.56;;;9.03;67.89
74329;BME280;62749;51.982;5.916;2023-04-19T05:03:00;102494.88;;;9.11;67.80
74329;BME280;62749;51.982;5.916;2023-04-19T05:05:30;102495.75;;;9.11;67.84
74329;BME280;62749;51.982;5.916;2023-04-19T05:08:02;102496.66;;;9.09;68.07
74329;BME280;62749;51.982;5.916;2023-04-19T05:10:31;102501.13;;;8.99;68.02
74329;BME280;62749;51.982;5.916;2023-04-19T05:13:01;102499.38;;;8.96;68.41
74329;BME280;62749;51.982;5.916;2023-04-19T05:15:30;102495.81;;;9.05;67.93
74329;BME280;62749;51.982;5.916;2023-04-19T05:18:00;102501.13;;;8.97;67.61
74329;BME280;62749;51.982;5.916;2023-04-19T05:20:29;102500.22;;;9.00;67.40
74329;BME280;62749;51.982;5.916;2023-04-19T05:23:02;102497.56;;;9.06;67.23
74329;BME280;62749;51.982;5.916;2023-04-19T05:25:32;102492.38;;;8.97;66.79
74329;BME280;62749;51.982;5.916;2023-04-19T05:28:01;102496.72;;;8.98;66.71
74329;BME280;62749;51.982;5.916;2023-04-19T05:30:31;102497.66;;;8.92;67.13
74329;BME280;62749;51.982;5.916;2023-04-19T05:33:00;102496.81;;;8.88;66.95
74329;BME280;62749;51.982;5.916;2023-04-19T05:35:30;102495.94;;;8.89;66.87
74329;BME280;62749;51.982;5.916;2023-04-19T05:38:02;102509.19;;;8.80;66.49
74329;BME280;62749;51.982;5.916;2023-04-19T05:40:31;102512.69;;;8.79;66.26
74329;BME280;62749;51.982;5.916;2023-04-19T05:43:00;102504.75;;;8.87;65.60
74329;BME280;62749;51.982;5.916;2023-04-19T05:45:30;102503.84;;;8.86;65.61
74329;BME280;62749;51.982;5.916;2023-04-19T05:47:59;102503.06;;;8.75;65.38
74329;BME280;62749;51.982;5.916;2023-04-19T05:50:29;102509.16;;;8.83;65.12
74329;BME280;62749;51.982;5.916;2023-04-19T05:52:58;102513.59;;;8.78;64.74
74329;BME280;62749;51.982;5.916;2023-04-19T05:55:31;102501.28;;;8.80;62.95
74329;BME280;62749;51.982;5.916;2023-04-19T05:58:00;102509.19;;;8.80;62.74
74329;BME280;62749;51.982;5.916;2023-04-19T06:00:30;102503.81;;;8.93;62.16
74329;BME280;62749;51.982;5.916;2023-04-19T06:02:59;102500.25;;;9.01;62.64
74329;BME280;62749;51.982;5.916;2023-04-19T06:05:28;102509.03;;;8.99;61.16
74329;BME280;62749;51.982;5.916;2023-04-19T06:07:58;102506.38;;;8.99;60.86
74329;BME280;62749;51.982;5.916;2023-04-19T06:10:28;102503.72;;;9.02;60.09
74329;BME280;62749;51.982;5.916;2023-04-19T06:13:00;102505.50;;;9.03;60.30
74329;BME280;62749;51.982;5.916;2023-04-19T06:15:29;102513.34;;;9.08;59.71
74329;BME280;62749;51.982;5.916;2023-04-19T06:17:59;102520.34;;;9.13;58.50
74329;BME280;62749;51.982;5.916;2023-04-19T06:20:28;102511.47;;;9.22;58.59
74329;BME280;62749;51.982;5.916;2023-04-19T06:22:57;102514.78;;;9.44;57.51
74329;BME280;62749;51.982;5.916;2023-04-19T06:25:27;102518.41;;;9.35;57.13
74329;BME280;62749;51.982;5.916;2023-04-19T06:27:56;102518.28;;;9.45;56.85
74329;BME280;62749;51.982;5.916;2023-04-19T06:30:28;102519.03;;;9.61;56.49
74329;BME280;62749;51.982;5.916;2023-04-19T06:32:57;102526.00;;;9.65;55.60
74329;BME280;62749;51.982;5.916;2023-04-19T06:35:30;102509.16;;;9.80;55.46
74329;BME280;62749;51.982;5.916;2023-04-19T06:37:59;102516.13;;;9.86;53.76
74329;BME280;62749;51.982;5.916;2023-04-19T06:40:29;102519.59;;;9.88;54.37
74329;BME280;62749;51.982;5.916;2023-04-19T06:43:01;102512.59;;;9.85;52.65
74329;BME280;62749;51.982;5.916;2023-04-19T06:45:35;102517.81;;;9.91;52.46
74329;BME280;62749;51.982;5.916;2023-04-19T06:48:05;102522.00;;;10.09;52.09
74329;BME280;62749;51.982;5.916;2023-04-19T06:50:34;102533.50;;;10.02;50.87
74329;BME280;62749;51.982;5.916;2023-04-19T06:53:07;102522.19;;;9.94;50.48
74329;BME280;62749;51.982;5.916;2023-04-19T06:55:37;102522.09;;;10.02;50.58
74329;BME280;62749;51.982;5.916;2023-04-19T06:58:06;102536.03;;;10.13;50.11
74329;BME280;62749;51.982;5.916;2023-04-19T07:00:38;102534.34;;;10.07;49.32
74329;BME280;62749;51.982;5.916;2023-04-19T07:03:08;102531.75;;;10.06;48.43
74329;BME280;62749;51.982;5.916;2023-04-19T07:05:37;102528.09;;;10.16;48.28
74329;BME280;62749;51.982;5.916;2023-04-19T07:08:07;102534.38;;;10.06;48.20
74329;BME280;62749;51.982;5.916;2023-04-19T07:10:36;102535.97;;;10.18;48.47
74329;BME280;62749;51.982;5.916;2023-04-19T07:13:05;102535.91;;;10.24;47.08
74329;BME280;62749;51.982;5.916;2023-04-19T07:15:37;102542.16;;;10.18;47.23
74329;BME280;62749;51.982;5.916;2023-04-19T07:18:07;102537.59;;;10.28;47.04
74329;BME280;62749;51.982;5.916;2023-04-19T07:20:37;102543.78;;;10.27;46.81
74329;BME280;62749;51.982;5.916;2023-04-19T07:23:09;102528.84;;;10.24;45.98
74329;BME280;62749;51.982;5.916;2023-04-19T07:25:39;102532.94;;;10.52;45.72
74329;BME280;62749;51.982;5.916;2023-04-19T07:28:08;102537.41;;;10.47;44.87
74329;BME280;62749;51.982;5.916;2023-04-19T07:30:40;102525.00;;;10.52;45.63
74329;BME280;62749;51.982;5.916;2023-04-19T07:33:11;102532.69;;;10.69;46.00
74329;BME280;62749;51.982;5.916;2023-04-19T07:35:41;102541.34;;;10.79;45.15
74329;BME280;62749;51.982;5.916;2023-04-19T07:38:10;102534.56;;;10.61;44.94
74329;BME280;62749;51.982;5.916;2023-04-19T07:40:40;102537.94;;;10.70;45.71
74329;BME280;62749;51.982;5.916;2023-04-19T07:43:09;102536.22;;;10.68;44.69
74329;BME280;62749;51.982;5.916;2023-04-19T07:45:41;102536.13;;;10.74;44.93
74329;BME280;62749;51.982;5.916;2023-04-19T07:48:11;102543.75;;;10.96;44.72
74329;BME280;62749;51.982;5.916;2023-04-19T07:50:40;102541.25;;;10.85;43.94
74329;BME280;62749;51.982;5.916;2023-04-19T07:53:10;102543.97;;;10.80;43.97
74329;BME280;62749;51.982;5.916;2023-04-19T07:55:39;102534.13;;;10.90;43.76
74329;BME280;62749;51.982;5.916;2023-04-19T07:58:10;102538.25;;;11.07;43.83
74329;BME280;62749;51.982;5.916;2023-04-19T08:00:42;102537.31;;;11.11;43.54
74329;BME280;62749;51.982;5.916;2023-04-19T08:03:12;102536.28;;;11.21;43.66
74329;BME280;62749;51.982;5.916;2023-04-19T08:05:41;102543.38;;;11.17;43.50
74329;BME280;62749;51.982;5.916;2023-04-19T08:08:11;102542.16;;;11.37;42.60
74329;BME280;62749;51.982;5.916;2023-04-19T08:10:40;102540.22;;;11.47;42.73
74329;BME280;62749;51.982;5.916;2023-04-19T08:13:09;102544.75;;;11.42;42.75
74329;BME280;62749;51.982;5.916;2023-04-19T08:15:41;102540.56;;;11.28;42.62
74329;BME280;62749;51.982;5.916;2023-04-19T08:18:11;102542.38;;;11.25;42.28
74329;BME280;62749;51.982;5.916;2023-04-19T08:20:41;102534.31;;;11.32;42.61
74329;BME280;62749;51.982;5.916;2023-04-19T08:23:11;102533.19;;;11.46;42.87
74329;BME280;62749;51.982;5.916;2023-04-19T08:25:41;102522.28;;;11.63;42.62
74329;BME280;62749;51.982;5.916;2023-04-19T08:28:10;102533.91;;;11.56;41.12
74329;BME280;62749;51.982;5.916;2023-04-19T08:30:43;102526.81;;;11.56;42.53
74329;BME280;62749;51.982;5.916;2023-04-19T08:33:12;102537.41;;;11.56;41.22
74329;BME280;62749;51.982;5.916;2023-04-19T08:35:42;102535.66;;;11.57;42.40
74329;BME280;62749;51.982;5.916;2023-04-19T08:38:11;102519.53;;;11.69;41.47
74329;BME280;62749;51.982;5.916;2023-04-19T08:40:45;102515.47;;;11.96;40.39
74329;BME280;62749;51.982;5.916;2023-04-19T08:43:16;102528.03;;;11.87;40.93
74329;BME280;62749;51.982;5.916;2023-04-19T08:45:49;102535.03;;;11.89;40.39
74329;BME280;62749;51.982;5.916;2023-04-19T08:48:20;102538.66;;;11.85;39.21
74329;BME280;62749;51.982;5.916;2023-04-19T08:50:53;102529.41;;;11.59;38.03
74329;BME280;62749;51.982;5.916;2023-04-19T08:53:27;102532.13;;;11.56;38.81
74329;BME280;62749;51.982;5.916;2023-04-19T08:55:57;102528.25;;;11.76;38.87
74329;BME280;62749;51.982;5.916;2023-04-19T08:58:27;102533.06;;;11.55;38.72
74329;BME280;62749;51.982;5.916;2023-04-19T09:01:03;102533.38;;;11.84;38.55
74329;BME280;62749;51.982;5.916;2023-04-19T09:03:33;102541.81;;;11.57;37.60
74329;BME280;62749;51.982;5.916;2023-04-19T09:06:03;102536.50;;;11.57;38.72
74329;BME280;62749;51.982;5.916;2023-04-19T09:08:33;102528.69;;;11.51;38.85
74329;BME280;62749;51.982;5.916;2023-04-19T09:11:02;102523.03;;;11.70;39.38
74329;BME280;62749;51.982;5.916;2023-04-19T09:13:32;102511.91;;;11.52;38.98
74329;BME280;62749;51.982;5.916;2023-04-19T09:16:06;102522.16;;;11.71;39.70
74329;BME280;62749;51.982;5.916;2023-04-19T09:18:55;102518.50;;;11.76;39.26
74329;BME280;62749;51.982;5.916;2023-04-19T09:21:29;102517.41;;;11.88;39.09
74329;BME280;62749;51.982;5.916;2023-04-19T09:23:59;102530.50;;;11.94;39.28
74329;BME280;62749;51.982;5.916;2023-04-19T09:26:28;102519.63;;;11.64;40.00
74329;BME280;62749;51.982;5.916;2023-04-19T09:28:59;102520.38;;;11.71;39.46
74329;BME280;62749;51.982;5.916;2023-04-19T09:31:34;102525.78;;;11.65;39.79
74329;BME280;62749;51.982;5.916;2023-04-19T09:34:14;102511.34;;;11.81;39.91
74329;BME280;62749;51.982;5.916;2023-04-19T09:36:44;102512.25;;;12.26;41.07
74329;BME280;62749;51.982;5.916;2023-04-19T09:39:27;102514.13;;;12.21;40.64
74329;BME280;62749;51.982;5.916;2023-04-19T09:41:57;102524.03;;;12.11;40.08
74329;BME280;62749;51.982;5.916;2023-04-19T09:44:28;102508.34;;;12.02;39.77
74329;BME280;62749;51.982;5.916;2023-04-19T09:47:01;102507.44;;;12.43;40.17
74329;BME280;62749;51.982;5.916;2023-04-19T09:49:30;102493.63;;;12.29;39.16
74329;BME280;62749;51.982;5.916;2023-04-19T09:52:00;102502.34;;;12.72;39.60
74329;BME280;62749;51.982;5.916;2023-04-19T09:54:31;102510.47;;;13.02;37.28
74329;BME280;62749;51.982;5.916;2023-04-19T09:57:01;102480.97;;;12.80;37.88
74329;BME280;62749;51.982;5.916;2023-04-19T09:59:31;102490.16;;;13.01;37.01
74329;BME280;62749;51.982;5.916;2023-04-19T10:02:04;102489.00;;;13.13;38.08
74329;BME280;62749;51.982;5.916;2023-04-19T10:04:35;102482.19;;;13.02;37.84
74329;BME280;62749;51.982;5.916;2023-04-19T10:07:05;102481.88;;;13.13;37.93
74329;BME280;62749;51.982;5.916;2023-04-19T10:09:35;102487.31;;;13.10;37.76
74329;BME280;62749;51.982;5.916;2023-04-19T10:12:06;102477.47;;;13.14;37.77
74329;BME280;62749;51.982;5.916;2023-04-19T10:14:38;102479.09;;;13.19;37.31
74329;BME280;62749;51.982;5.916;2023-04-19T10:17:11;102482.69;;;13.52;37.46
74329;BME280;62749;51.982;5.916;2023-04-19T10:19:44;102473.38;;;13.68;35.92
74329;BME280;62749;51.982;5.916;2023-04-19T10:22:15;102486.16;;;13.87;36.59
74329;BME280;62749;51.982;5.916;2023-04-19T10:25:09;102486.03;;;13.90;36.72
74329;BME280;62749;51.982;5.916;2023-04-19T10:27:52;102475.63;;;13.82;35.63
74329;BME280;62749;51.982;5.916;2023-04-19T10:30:22;102471.03;;;13.57;36.57
74329;BME280;62749;51.982;5.916;2023-04-19T10:32:57;102469.41;;;13.83;37.30
74329;BME280;62749;51.982;5.916;2023-04-19T10:35:35;102463.50;;;13.73;35.42
74329;BME280;62749;51.982;5.916;2023-04-19T10:38:09;102470.72;;;13.68;34.80
74329;BME280;62749;51.982;5.916;2023-04-19T10:40:57;102454.72;;;13.40;35.42
74329;BME280;62749;51.982;5.916;2023-04-19T10:43:31;102464.00;;;13.86;36.92
74329;BME280;62749;51.982;5.916;2023-04-19T10:46:06;102464.47;;;14.01;34.95
74329;BME280;62749;51.982;5.916;2023-04-19T10:48:50;102463.16;;;13.54;34.97
74329;BME280;62749;51.982;5.916;2023-04-19T10:51:25;102470.09;;;13.90;34.79
74329;BME280;62749;51.982;5.916;2023-04-19T10:53:57;102472.59;;;14.26;35.94
74329;BME280;62749;51.982;5.916;2023-04-19T10:59:32;102449.81;;;14.46;34.01
74329;BME280;62749;51.982;5.916;2023-04-19T11:02:03;102445.22;;;14.51;33.57
74329;BME280;62749;51.982;5.916;2023-04-19T11:05:00;102441.31;;;15.40;31.71
74329;BME280;62749;51.982;5.916;2023-04-19T11:07:37;102429.19;;;16.04;29.63
74329;BME280;62749;51.982;5.916;2023-04-19T11:10:09;102437.88;;;15.62;29.02
74329;BME280;62749;51.982;5.916;2023-04-19T11:12:42;102439.56;;;15.39;30.92
74329;BME280;62749;51.982;5.916;2023-04-19T11:15:12;102426.59;;;15.04;28.78
74329;BME280;62749;51.982;5.916;2023-04-19T11:17:41;102433.47;;;15.12;27.43
74329;BME280;62749;51.982;5.916;2023-04-19T11:20:14;102429.56;;;15.46;27.53
74329;BME280;62749;51.982;5.916;2023-04-19T11:22:50;102424.53;;;15.87;26.52
74329;BME280;62749;51.982;5.916;2023-04-19T11:25:21;102406.28;;;15.27;28.04
74329;BME280;62749;51.982;5.916;2023-04-19T11:27:52;102414.16;;;15.30;27.10
74329;BME280;62749;51.982;5.916;2023-04-19T11:30:28;102403.59;;;15.53;26.11
74329;BME280;62749;51.982;5.916;2023-04-19T11:32:58;102406.56;;;15.19;26.96
74329;BME280;62749;51.982;5.916;2023-04-19T11:35:30;102377.56;;;15.12;26.51
74329;BME280;62749;51.982;5.916;2023-04-19T11:37:59;102399.78;;;15.11;27.57
74329;BME280;62749;51.982;5.916;2023-04-19T11:40:30;102390.78;;;15.15;27.48
74329;BME280;62749;51.982;5.916;2023-04-19T11:43:02;102382.38;;;15.26;27.47
74329;BME280;62749;51.982;5.916;2023-04-19T11:45:34;102386.22;;;15.17;28.47
74329;BME280;62749;51.982;5.916;2023-04-19T11:48:04;102368.03;;;15.30;27.31
74329;BME280;62749;51.982;5.916;2023-04-19T11:50:40;102376.56;;;15.40;27.51
74329;BME280;62749;51.982;5.916;2023-04-19T11:53:12;102368.66;;;15.60;27.38
74329;BME280;62749;51.982;5.916;2023-04-19T11:55:43;102369.19;;;16.16;26.67
74329;BME280;62749;51.982;5.916;2023-04-19T11:58:23;102368.53;;;16.54;25.77
74329;BME280;62749;51.982;5.916;2023-04-19T12:00:54;102361.31;;;16.35;26.00
74329;BME280;62749;51.982;5.916;2023-04-19T12:03:26;102368.81;;;16.03;26.73
74329;BME280;62749;51.982;5.916;2023-04-19T12:06:00;102365.91;;;15.87;26.00
74329;BME280;62749;51.982;5.916;2023-04-19T12:08:35;102354.81;;;15.98;26.68
74329;BME280;62749;51.982;5.916;2023-04-19T12:11:05;102348.19;;;16.31;27.08
74329;BME280;62749;51.982;5.916;2023-04-19T12:13:35;102337.34;;;16.34;25.96
74329;BME280;62749;51.982;5.916;2023-04-19T12:16:06;102334.69;;;16.34;26.65
74329;BME280;62749;51.982;5.916;2023-04-19T12:18:44;102352.06;;;16.65;26.00
74329;BME280;62749;51.982;5.916;2023-04-19T12:21:29;102338.06;;;17.01;27.17
74329;BME280;62749;51.982;5.916;2023-04-19T12:24:00;102345.34;;;16.77;26.21
74329;BME280;62749;51.982;5.916;2023-04-19T12:26:30;102334.94;;;16.70;25.69
74329;BME280;62749;51.982;5.916;2023-04-19T12:29:01;102337.56;;;16.91;26.35
74329;BME280;62749;51.982;5.916;2023-04-19T12:31:31;102329.66;;;17.10;26.87
74329;BME280;62749;51.982;5.916;2023-04-19T12:34:01;102332.66;;;17.42;26.81
74329;BME280;62749;51.982;5.916;2023-04-19T12:36:32;102337.72;;;17.29;26.17
74329;BME280;62749;51.982;5.916;2023-04-19T12:39:02;102320.13;;;16.84;25.71
74329;BME280;62749;51.982;5.916;2023-04-19T12:41:32;102323.66;;;16.64;25.75
74329;BME280;62749;51.982;5.916;2023-04-19T12:44:02;102322.22;;;17.17;26.52
74329;BME280;62749;51.982;5.916;2023-04-19T12:46:31;102321.38;;;17.55;25.71
74329;BME280;62749;51.982;5.916;2023-04-19T12:49:01;102312.00;;;17.27;26.54
74329;BME280;62749;51.982;5.916;2023-04-19T12:51:33;102319.34;;;17.02;26.30
74329;BME280;62749;51.982;5.916;2023-04-19T12:54:03;102309.78;;;16.76;26.49
74329;BME280;62749;51.982;5.916;2023-04-19T12:56:33;102309.25;;;17.09;26.12
74329;BME280;62749;51.982;5.916;2023-04-19T12:59:02;102307.78;;;17.21;25.57
74329;BME280;62749;51.982;5.916;2023-04-19T13:01:31;102301.16;;;17.30;26.67
74329;BME280;62749;51.982;5.916;2023-04-19T13:04:01;102310.56;;;17.58;26.61
74329;BME280;62749;51.982;5.916;2023-04-19T13:06:30;102302.09;;;17.10;25.58
74329;BME280;62749;51.982;5.916;2023-04-19T13:09:02;102296.31;;;17.57;27.27
74329;BME280;62749;51.982;5.916;2023-04-19T13:11:32;102289.78;;;17.82;25.18
74329;BME280;62749;51.982;5.916;2023-04-19T13:14:02;102281.09;;;17.59;24.60
74329;BME280;62749;51.982;5.916;2023-04-19T13:16:31;102277.75;;;17.73;25.38